sensor_id;sensor_type;location;lat;lon;timestamp;pressure;altitude;pressure_sealevel;temperature;humidity
19777;BME280;10047;42.490;26.012;2024-01-15T00:02:14;99931.88;;;-2.38;100.00
19777;BME280;10047;42.490;26.012;2024-01-15T00:04:40;99922.25;;;-2.93;100.00
19777;BME280;10047;42.490;26.012;2024-01-15T00:07:09;99936.03;;;-2.37;100.00
19777;BME280;10047;42.490;26.012;2024-01-15T00:09:35;99931.78;;;-2.42;100.00
19777;BME280;10047;42.490;26.012;2024-01-15T00:12:01;99957.13;;;-2.57;100.00
19777;BME280;10047;42.490;26.012;2024-01-15T00:14:27;99964.69;;;-2.52;100.00
19777;BME280;10047;42.490;26.012;2024-01-15T00:16:53;99947.41;;;-2.48;100.00
19777;BME280;10047;42.490;26.012;2024-01-15T00:19:21;99956.91;;;-2.66;100.00
19777;BME280;10047;42.490;26.012;2024-01-15T00:21:47;99968.97;;;-2.81;100.00
19777;BME280;10047;42.490;26.012;2024-01-15T00:24:12;99926.00;;;-2.76;100.00
19777;BME280;10047;42.490;26.012;2024-01-15T00:26:38;99941.72;;;-2.42;100.00
19777;BME280;10047;42.490;26.012;2024-01-15T00:29:03;99932.66;;;-2.39;100.00
19777;BME280;10047;42.490;26.012;2024-01-15T00:31:29;99940.03;;;-2.43;100.00
19777;BME280;10047;42.490;26.012;2024-01-15T00:33:56;99922.88;;;-2.67;100.00
19777;BME280;10047;42.490;26.012;2024-01-15T00:36:21;99947.13;;;-2.58;100.00
19777;BME280;10047;42.490;26.012;2024-01-15T00:38:47;99905.66;;;-2.95;100.00
19777;BME280;10047;42.490;26.012;2024-01-15T00:41:13;99909.06;;;-2.90;100.00
19777;BME280;10047;42.490;26.012;2024-01-15T00:43:38;99920.91;;;-2.82;100.00
19777;BME280;10047;42.490;26.012;2024-01-15T00:46:05;99909.75;;;-2.97;100.00
19777;BME280;10047;42.490;26.012;2024-01-15T00:48:30;99881.88;;;-3.17;100.00
19777;BME280;10047;42.490;26.012;2024-01-15T00:50:56;99950.88;;;-3.08;100.00
19777;BME280;10047;42.490;26.012;2024-01-15T00:53:21;99895.78;;;-2.91;100.00
19777;BME280;10047;42.490;26.012;2024-01-15T00:55:48;99945.09;;;-2.75;100.00
19777;BME280;10047;42.490;26.012;2024-01-15T00:58:14;99904.25;;;-3.17;100.00
19777;BME280;10047;42.490;26.012;2024-01-15T01:00:39;99929.53;;;-3.00;100.00
19777;BME280;10047;42.490;26.012;2024-01-15T01:03:04;99947.38;;;-3.15;100.00
19777;BME280;10047;42.490;26.012;2024-01-15T01:05:30;99894.22;;;-3.21;100.00
19777;BME280;10047;42.490;26.012;2024-01-15T01:07:55;99935.50;;;-2.94;100.00
19777;BME280;10047;42.490;26.012;2024-01-15T01:10:21;99881.22;;;-3.11;100.00
19777;BME280;10047;42.490;26.012;2024-01-15T01:12:48;99898.59;;;-2.77;100.00
19777;BME280;10047;42.490;26.012;2024-01-15T01:15:14;99946.75;;;-3.08;100.00
19777;BME280;10047;42.490;26.012;2024-01-15T01:17:39;99933.22;;;-2.52;100.00
19777;BME280;10047;42.490;26.012;2024-01-15T01:20:05;99944.16;;;-3.11;100.00
19777;BME280;10047;42.490;26.012;2024-01-15T01:22:33;99940.72;;;-2.83;100.00
19777;BME280;10047;42.490;26.012;2024-01-15T01:24:59;99929.00;;;-2.89;100.00
19777;BME280;10047;42.490;26.012;2024-01-15T01:27:24;99925.47;;;-2.97;100.00
19777;BME280;10047;42.490;26.012;2024-01-15T01:29:50;99916.09;;;-3.07;100.00
19777;BME280;10047;42.490;26.012;2024-01-15T01:32:15;99943.66;;;-2.99;100.00
19777;BME280;10047;42.490;26.012;2024-01-15T01:34:41;99890.63;;;-2.66;100.00
19777;BME280;10047;42.490;26.012;2024-01-15T01:37:14;99907.44;;;-2.90;100.00
19777;BME280;10047;42.490;26.012;2024-01-15T01:39:40;99878.06;;;-2.70;100.00
19777;BME280;10047;42.490;26.012;2024-01-15T01:42:06;99919.59;;;-2.66;100.00
19777;BME280;10047;42.490;26.012;2024-01-15T01:44:31;99921.22;;;-2.68;100.00
19777;BME280;10047;42.490;26.012;2024-01-15T01:46:58;99885.94;;;-2.88;100.00
19777;BME280;10047;42.490;26.012;2024-01-15T01:49:25;99893.06;;;-3.01;100.00
19777;BME280;10047;42.490;26.012;2024-01-15T01:51:51;99926.13;;;-3.04;100.00
19777;BME280;10047;42.490;26.012;2024-01-15T01:54:18;99882.91;;;-3.43;100.00
19777;BME280;10047;42.490;26.012;2024-01-15T01:56:46;99903.22;;;-2.92;100.00
19777;BME280;10047;42.490;26.012;2024-01-15T01:59:12;99900.72;;;-2.94;100.00
19777;BME280;10047;42.490;26.012;2024-01-15T02:01:39;99862.94;;;-3.13;100.00
19777;BME280;10047;42.490;26.012;2024-01-15T02:04:05;99855.28;;;-3.21;100.00
19777;BME280;10047;42.490;26.012;2024-01-15T02:06:30;99855.72;;;-3.37;100.00
19777;BME280;10047;42.490;26.012;2024-01-15T02:08:56;99824.41;;;-2.96;100.00
19777;BME280;10047;42.490;26.012;2024-01-15T02:11:22;99873.34;;;-2.95;100.00
19777;BME280;10047;42.490;26.012;2024-01-15T02:13:47;99856.81;;;-2.93;100.00
19777;BME280;10047;42.490;26.012;2024-01-15T02:16:13;99852.81;;;-2.87;100.00
19777;BME280;10047;42.490;26.012;2024-01-15T02:18:46;99856.28;;;-2.80;100.00
19777;BME280;10047;42.490;26.012;2024-01-15T02:21:12;99856.56;;;-3.02;100.00
19777;BME280;10047;42.490;26.012;2024-01-15T02:23:38;99847.19;;;-3.14;100.00
19777;BME280;10047;42.490;26.012;2024-01-15T02:26:04;99858.78;;;-3.13;100.00
19777;BME280;10047;42.490;26.012;2024-01-15T02:28:30;99833.56;;;-3.29;100.00
19777;BME280;10047;42.490;26.012;2024-01-15T02:30:57;99857.53;;;-3.31;100.00
19777;BME280;10047;42.490;26.012;2024-01-15T02:33:23;99813.75;;;-3.61;100.00
19777;BME280;10047;42.490;26.012;2024-01-15T02:35:48;99807.44;;;-3.46;100.00
19777;BME280;10047;42.490;26.012;2024-01-15T02:38:17;99848.00;;;-3.79;100.00
19777;BME280;10047;42.490;26.012;2024-01-15T02:40:44;99855.16;;;-3.89;100.00
19777;BME280;10047;42.490;26.012;2024-01-15T02:43:09;99847.34;;;-4.03;100.00
19777;BME280;10047;42.490;26.012;2024-01-15T02:45:35;99829.41;;;-3.94;100.00
19777;BME280;10047;42.490;26.012;2024-01-15T02:48:00;99819.34;;;-3.99;100.00
19777;BME280;10047;42.490;26.012;2024-01-15T02:50:26;99799.22;;;-4.08;100.00
19777;BME280;10047;42.490;26.012;2024-01-15T02:52:52;99840.22;;;-3.60;100.00
19777;BME280;10047;42.490;26.012;2024-01-15T02:55:17;99767.91;;;-3.72;100.00
19777;BME280;10047;42.490;26.012;2024-01-15T02:57:43;99797.72;;;-4.03;100.00
19777;BME280;10047;42.490;26.012;2024-01-15T03:00:09;99819.84;;;-3.79;100.00
19777;BME280;10047;42.490;26.012;2024-01-15T03:02:38;99789.88;;;-3.87;100.00
19777;BME280;10047;42.490;26.012;2024-01-15T03:05:09;99820.34;;;-3.92;100.00
19777;BME280;10047;42.490;26.012;2024-01-15T03:07:34;99801.34;;;-3.59;100.00
19777;BME280;10047;42.490;26.012;2024-01-15T03:10:00;99818.88;;;-3.53;100.00
19777;BME280;10047;42.490;26.012;2024-01-15T03:12:25;99809.59;;;-3.60;100.00
19777;BME280;10047;42.490;26.012;2024-01-15T03:14:50;99782.13;;;-3.99;100.00
19777;BME280;10047;42.490;26.012;2024-01-15T03:17:16;99814.84;;;-3.81;100.00
19777;BME280;10047;42.490;26.012;2024-01-15T03:19:41;99812.69;;;-4.00;100.00
19777;BME280;10047;42.490;26.012;2024-01-15T03:22:07;99799.38;;;-4.02;100.00
19777;BME280;10047;42.490;26.012;2024-01-15T03:24:34;99799.44;;;-3.69;100.00
19777;BME280;10047;42.490;26.012;2024-01-15T03:27:00;99793.47;;;-3.76;100.00
19777;BME280;10047;42.490;26.012;2024-01-15T03:29:26;99798.34;;;-3.46;100.00
19777;BME280;10047;42.490;26.012;2024-01-15T03:31:51;99761.75;;;-4.18;100.00
19777;BME280;10047;42.490;26.012;2024-01-15T03:34:17;99794.03;;;-4.17;100.00
19777;BME280;10047;42.490;26.012;2024-01-15T03:36:42;99777.88;;;-3.70;100.00
19777;BME280;10047;42.490;26.012;2024-01-15T03:39:08;99767.94;;;-4.03;100.00
19777;BME280;10047;42.490;26.012;2024-01-15T03:41:33;99798.13;;;-3.57;100.00
19777;BME280;10047;42.490;26.012;2024-01-15T03:43:59;99801.22;;;-3.64;100.00
19777;BME280;10047;42.490;26.012;2024-01-15T03:46:24;99792.31;;;-3.56;100.00
19777;BME280;10047;42.490;26.012;2024-01-15T03:48:50;99811.69;;;-4.06;100.00
19777;BME280;10047;42.490;26.012;2024-01-15T03:51:17;99761.78;;;-3.84;100.00
19777;BME280;10047;42.490;26.012;2024-01-15T03:53:43;99776.78;;;-4.12;100.00
19777;BME280;10047;42.490;26.012;2024-01-15T03:56:08;99806.91;;;-3.68;100.00
19777;BME280;10047;42.490;26.012;2024-01-15T03:58:33;99812.84;;;-3.63;100.00
19777;BME280;10047;42.490;26.012;2024-01-15T04:00:59;99795.25;;;-3.39;100.00
19777;BME280;10047;42.490;26.012;2024-01-15T04:03:24;99786.69;;;-3.14;100.00
19777;BME280;10047;42.490;26.012;2024-01-15T04:05:50;99760.84;;;-3.89;100.00
19777;BME280;10047;42.490;26.012;2024-01-15T04:08:15;99779.41;;;-3.42;100.00
19777;BME280;10047;42.490;26.012;2024-01-15T04:10:40;99789.91;;;-3.53;100.00
19777;BME280;10047;42.490;26.012;2024-01-15T04:13:06;99774.38;;;-3.11;100.00
19777;BME280;10047;42.490;26.012;2024-01-15T04:15:32;99746.34;;;-3.74;100.00
19777;BME280;10047;42.490;26.012;2024-01-15T04:17:57;99744.72;;;-3.72;100.00
19777;BME280;10047;42.490;26.012;2024-01-15T04:20:23;99776.38;;;-3.65;100.00
19777;BME280;10047;42.490;26.012;2024-01-15T04:22:48;99730.25;;;-3.56;100.00
19777;BME280;10047;42.490;26.012;2024-01-15T04:25:14;99771.59;;;-3.58;100.00
19777;BME280;10047;42.490;26.012;2024-01-15T04:27:39;99742.34;;;-2.99;100.00
19777;BME280;10047;42.490;26.012;2024-01-15T04:30:05;99753.63;;;-3.47;100.00
19777;BME280;10047;42.490;26.012;2024-01-15T04:32:30;99732.03;;;-3.50;100.00
19777;BME280;10047;42.490;26.012;2024-01-15T04:34:56;99736.16;;;-3.51;100.00
19777;BME280;10047;42.490;26.012;2024-01-15T04:37:21;99707.19;;;-3.84;100.00
19777;BME280;10047;42.490;26.012;2024-01-15T04:39:46;99694.56;;;-3.93;100.00
19777;BME280;10047;42.490;26.012;2024-01-15T04:42:12;99693.00;;;-3.90;100.00
19777;BME280;10047;42.490;26.012;2024-01-15T04:44:37;99681.31;;;-3.60;100.00
19777;BME280;10047;42.490;26.012;2024-01-15T04:47:03;99714.56;;;-3.55;100.00
19777;BME280;10047;42.490;26.012;2024-01-15T04:49:28;99719.28;;;-3.64;100.00
19777;BME280;10047;42.490;26.012;2024-01-15T04:51:55;99725.69;;;-3.73;100.00
19777;BME280;10047;42.490;26.012;2024-01-15T04:54:20;99708.03;;;-3.49;100.00
19777;BME280;10047;42.490;26.012;2024-01-15T04:56:46;99694.31;;;-3.34;100.00
19777;BME280;10047;42.490;26.012;2024-01-15T04:59:12;99665.41;;;-3.68;100.00
19777;BME280;10047;42.490;26.012;2024-01-15T05:01:38;99706.44;;;-3.82;100.00
19777;BME280;10047;42.490;26.012;2024-01-15T05:04:03;99678.28;;;-3.46;100.00
19777;BME280;10047;42.490;26.012;2024-01-15T05:06:28;99654.66;;;-4.02;100.00
19777;BME280;10047;42.490;26.012;2024-01-15T05:08:54;99646.22;;;-3.75;100.00
19777;BME280;10047;42.490;26.012;2024-01-15T05:11:20;99668.91;;;-3.60;100.00
19777;BME280;10047;42.490;26.012;2024-01-15T05:13:45;99677.09;;;-3.62;100.00
19777;BME280;10047;42.490;26.012;2024-01-15T05:16:10;99623.28;;;-4.00;100.00
19777;BME280;10047;42.490;26.012;2024-01-15T05:18:36;99662.00;;;-4.05;100.00
19777;BME280;10047;42.490;26.012;2024-01-15T05:21:03;99692.19;;;-3.90;100.00
19777;BME280;10047;42.490;26.012;2024-01-15T05:23:28;99649.78;;;-3.98;100.00
19777;BME280;10047;42.490;26.012;2024-01-15T05:25:54;99678.50;;;-3.75;100.00
19777;BME280;10047;42.490;26.012;2024-01-15T05:28:19;99682.44;;;-3.83;100.00
19777;BME280;10047;42.490;26.012;2024-01-15T05:30:45;99633.81;;;-3.75;100.00
19777;BME280;10047;42.490;26.012;2024-01-15T05:33:10;99603.16;;;-4.11;100.00
19777;BME280;10047;42.490;26.012;2024-01-15T05:35:35;99680.16;;;-3.74;100.00
19777;BME280;10047;42.490;26.012;2024-01-15T05:38:01;99651.44;;;-3.98;100.00
19777;BME280;10047;42.490;26.012;2024-01-15T05:40:28;99607.97;;;-4.17;100.00
19777;BME280;10047;42.490;26.012;2024-01-15T05:42:53;99684.63;;;-3.93;100.00
19777;BME280;10047;42.490;26.012;2024-01-15T05:45:19;99668.13;;;-3.59;100.00
19777;BME280;10047;42.490;26.012;2024-01-15T05:47:44;99642.91;;;-3.38;100.00
19777;BME280;10047;42.490;26.012;2024-01-15T05:50:09;99641.13;;;-3.43;100.00
19777;BME280;10047;42.490;26.012;2024-01-15T05:52:35;99620.53;;;-3.75;100.00
19777;BME280;10047;42.490;26.012;2024-01-15T05:55:01;99648.00;;;-4.03;100.00
19777;BME280;10047;42.490;26.012;2024-01-15T05:57:27;99611.34;;;-3.79;100.00
19777;BME280;10047;42.490;26.012;2024-01-15T05:59:53;99633.09;;;-3.32;100.00
19777;BME280;10047;42.490;26.012;2024-01-15T06:02:18;99597.47;;;-3.71;100.00
19777;BME280;10047;42.490;26.012;2024-01-15T06:04:44;99609.44;;;-3.91;100.00
19777;BME280;10047;42.490;26.012;2024-01-15T06:07:09;99639.13;;;-3.58;100.00
19777;BME280;10047;42.490;26.012;2024-01-15T06:09:34;99613.50;;;-3.18;100.00
19777;BME280;10047;42.490;26.012;2024-01-15T06:12:00;99584.91;;;-3.38;100.00
19777;BME280;10047;42.490;26.012;2024-01-15T06:14:25;99599.59;;;-4.22;100.00
19777;BME280;10047;42.490;26.012;2024-01-15T06:16:52;99632.47;;;-4.29;100.00
19777;BME280;10047;42.490;26.012;2024-01-15T06:19:17;99588.13;;;-3.83;100.00
19777;BME280;10047;42.490;26.012;2024-01-15T06:21:43;99614.72;;;-3.38;100.00
19777;BME280;10047;42.490;26.012;2024-01-15T06:24:08;99606.94;;;-3.15;100.00
19777;BME280;10047;42.490;26.012;2024-01-15T06:26:35;99623.28;;;-3.65;100.00
19777;BME280;10047;42.490;26.012;2024-01-15T06:29:00;99562.16;;;-3.97;100.00
19777;BME280;10047;42.490;26.012;2024-01-15T06:31:26;99583.06;;;-3.08;100.00
19777;BME280;10047;42.490;26.012;2024-01-15T06:33:51;99581.81;;;-3.30;100.00
19777;BME280;10047;42.490;26.012;2024-01-15T06:36:16;99596.59;;;-3.73;100.00
19777;BME280;10047;42.490;26.012;2024-01-15T06:38:43;99585.31;;;-2.29;100.00
19777;BME280;10047;42.490;26.012;2024-01-15T06:41:09;99566.88;;;-1.91;100.00
19777;BME280;10047;42.490;26.012;2024-01-15T06:43:35;99575.09;;;-1.97;100.00
19777;BME280;10047;42.490;26.012;2024-01-15T06:46:00;99573.66;;;-1.80;100.00
19777;BME280;10047;42.490;26.012;2024-01-15T06:48:26;99608.22;;;-1.45;100.00
19777;BME280;10047;42.490;26.012;2024-01-15T06:50:51;99546.94;;;-0.52;100.00
19777;BME280;10047;42.490;26.012;2024-01-15T06:53:17;99530.91;;;0.38;100.00
19777;BME280;10047;42.490;26.012;2024-01-15T06:55:42;99547.97;;;1.44;100.00
19777;BME280;10047;42.490;26.012;2024-01-15T06:58:08;99521.88;;;0.53;100.00
19777;BME280;10047;42.490;26.012;2024-01-15T07:00:33;99517.94;;;1.58;100.00
19777;BME280;10047;42.490;26.012;2024-01-15T07:02:59;99527.94;;;1.87;100.00
19777;BME280;10047;42.490;26.012;2024-01-15T07:05:24;99537.13;;;1.71;100.00
19777;BME280;10047;42.490;26.012;2024-01-15T07:07:49;99549.44;;;0.76;100.00
19777;BME280;10047;42.490;26.012;2024-01-15T07:10:15;99543.78;;;1.31;100.00
19777;BME280;10047;42.490;26.012;2024-01-15T07:12:44;99526.28;;;1.83;100.00
19777;BME280;10047;42.490;26.012;2024-01-15T07:15:10;99501.06;;;0.63;100.00
19777;BME280;10047;42.490;26.012;2024-01-15T07:17:36;99464.41;;;0.73;100.00
19777;BME280;10047;42.490;26.012;2024-01-15T07:20:08;99504.31;;;0.52;100.00
19777;BME280;10047;42.490;26.012;2024-01-15T07:22:35;99490.69;;;-0.12;100.00
19777;BME280;10047;42.490;26.012;2024-01-15T07:25:00;99490.00;;;0.16;100.00
19777;BME280;10047;42.490;26.012;2024-01-15T07:27:26;99519.88;;;-0.01;100.00
19777;BME280;10047;42.490;26.012;2024-01-15T07:29:51;99528.47;;;0.47;100.00
19777;BME280;10047;42.490;26.012;2024-01-15T07:32:17;99511.84;;;0.53;100.00
19777;BME280;10047;42.490;26.012;2024-01-15T07:34:43;99525.91;;;0.35;100.00
19777;BME280;10047;42.490;26.012;2024-01-15T07:37:08;99497.53;;;0.18;100.00
19777;BME280;10047;42.490;26.012;2024-01-15T07:39:34;99425.78;;;-0.05;100.00
19777;BME280;10047;42.490;26.012;2024-01-15T07:42:00;99517.66;;;0.52;100.00
19777;BME280;10047;42.490;26.012;2024-01-15T07:44:25;99502.81;;;0.87;100.00
19777;BME280;10047;42.490;26.012;2024-01-15T07:46:51;99468.59;;;0.81;100.00
19777;BME280;10047;42.490;26.012;2024-01-15T07:49:16;99480.19;;;0.58;100.00
19777;BME280;10047;42.490;26.012;2024-01-15T07:51:42;99498.72;;;1.22;100.00
19777;BME280;10047;42.490;26.012;2024-01-15T07:54:09;99507.03;;;1.15;100.00
19777;BME280;10047;42.490;26.012;2024-01-15T07:56:55;99471.06;;;0.75;100.00
19777;BME280;10047;42.490;26.012;2024-01-15T07:59:21;99460.22;;;0.66;100.00
19777;BME280;10047;42.490;26.012;2024-01-15T08:01:47;99471.09;;;0.72;100.00
19777;BME280;10047;42.490;26.012;2024-01-15T08:04:12;99483.66;;;0.98;100.00
19777;BME280;10047;42.490;26.012;2024-01-15T08:06:38;99485.34;;;1.01;100.00
19777;BME280;10047;42.490;26.012;2024-01-15T08:09:04;99471.13;;;1.01;100.00
19777;BME280;10047;42.490;26.012;2024-01-15T08:11:30;99516.84;;;0.50;100.00
19777;BME280;10047;42.490;26.012;2024-01-15T08:13:55;99532.56;;;0.30;100.00
19777;BME280;10047;42.490;26.012;2024-01-15T08:16:21;99541.88;;;0.62;100.00
19777;BME280;10047;42.490;26.012;2024-01-15T08:18:47;99491.94;;;0.73;100.00
19777;BME280;10047;42.490;26.012;2024-01-15T08:21:12;99503.66;;;0.94;100.00
19777;BME280;10047;42.490;26.012;2024-01-15T08:23:41;99494.50;;;1.15;100.00
19777;BME280;10047;42.490;26.012;2024-01-15T08:26:07;99498.72;;;1.34;100.00
19777;BME280;10047;42.490;26.012;2024-01-15T08:28:34;99490.38;;;1.32;100.00
19777;BME280;10047;42.490;26.012;2024-01-15T08:30:59;99500.41;;;1.32;100.00
19777;BME280;10047;42.490;26.012;2024-01-15T08:33:26;99491.22;;;1.40;100.00
19777;BME280;10047;42.490;26.012;2024-01-15T08:35:51;99457.00;;;1.36;100.00
19777;BME280;10047;42.490;26.012;2024-01-15T08:38:18;99486.19;;;1.57;100.00
19777;BME280;10047;42.490;26.012;2024-01-15T08:40:44;99481.22;;;1.58;100.00
19777;BME280;10047;42.490;26.012;2024-01-15T08:43:09;99490.38;;;1.68;100.00
19777;BME280;10047;42.490;26.012;2024-01-15T08:45:35;99487.03;;;1.47;100.00
19777;BME280;10047;42.490;26.012;2024-01-15T08:48:00;99448.66;;;1.45;100.00
19777;BME280;10047;42.490;26.012;2024-01-15T08:50:27;99434.47;;;1.35;100.00
19777;BME280;10047;42.490;26.012;2024-01-15T08:52:52;99428.63;;;1.58;100.00
19777;BME280;10047;42.490;26.012;2024-01-15T08:55:18;99419.44;;;1.38;100.00
19777;BME280;10047;42.490;26.012;2024-01-15T08:57:43;99414.44;;;1.60;100.00
19777;BME280;10047;42.490;26.012;2024-01-15T09:00:09;99444.44;;;1.92;100.00
19777;BME280;10047;42.490;26.012;2024-01-15T09:02:35;99407.72;;;1.61;100.00
19777;BME280;10047;42.490;26.012;2024-01-15T09:05:01;99433.53;;;2.05;100.00
19777;BME280;10047;42.490;26.012;2024-01-15T09:07:26;99425.09;;;2.33;100.00
19777;BME280;10047;42.490;26.012;2024-01-15T09:09:53;99392.59;;;2.08;100.00
19777;BME280;10047;42.490;26.012;2024-01-15T09:12:20;99381.78;;;1.91;100.00
19777;BME280;10047;42.490;26.012;2024-01-15T09:14:47;99404.25;;;2.24;100.00
19777;BME280;10047;42.490;26.012;2024-01-15T09:17:13;99386.69;;;2.24;100.00
19777;BME280;10047;42.490;26.012;2024-01-15T09:19:38;99397.59;;;2.11;100.00
19777;BME280;10047;42.490;26.012;2024-01-15T09:22:07;99369.94;;;2.26;100.00
19777;BME280;10047;42.490;26.012;2024-01-15T09:24:32;99404.81;;;2.71;100.00
19777;BME280;10047;42.490;26.012;2024-01-15T09:26:58;99368.97;;;2.55;100.00
19777;BME280;10047;42.490;26.012;2024-01-15T09:29:23;99361.47;;;2.51;100.00
19777;BME280;10047;42.490;26.012;2024-01-15T09:31:52;99370.69;;;2.44;100.00
19777;BME280;10047;42.490;26.012;2024-01-15T09:34:18;99337.03;;;2.77;100.00
19777;BME280;10047;42.490;26.012;2024-01-15T09:36:43;99376.38;;;2.75;100.00
19777;BME280;10047;42.490;26.012;2024-01-15T09:39:09;99357.28;;;2.50;100.00
19777;BME280;10047;42.490;26.012;2024-01-15T09:41:36;99323.00;;;2.52;100.00
19777;BME280;10047;42.490;26.012;2024-01-15T09:44:03;99314.34;;;2.92;100.00
19777;BME280;10047;42.490;26.012;2024-01-15T09:46:31;99305.03;;;3.03;100.00
19777;BME280;10047;42.490;26.012;2024-01-15T09:48:58;99309.81;;;3.30;100.00
19777;BME280;10047;42.490;26.012;2024-01-15T09:51:24;99300.63;;;3.26;100.00
19777;BME280;10047;42.490;26.012;2024-01-15T09:53:50;99308.00;;;3.44;100.00
19777;BME280;10047;42.490;26.012;2024-01-15T09:56:15;99264.44;;;3.45;100.00
19777;BME280;10047;42.490;26.012;2024-01-15T09:58:41;99218.00;;;3.07;100.00
19777;BME280;10047;42.490;26.012;2024-01-15T10:01:08;99262.41;;;3.75;100.00
19777;BME280;10047;42.490;26.012;2024-01-15T10:03:34;99226.47;;;3.67;100.00
19777;BME280;10047;42.490;26.012;2024-01-15T10:05:59;99253.13;;;3.80;100.00
19777;BME280;10047;42.490;26.012;2024-01-15T10:08:25;99230.50;;;3.81;100.00
19777;BME280;10047;42.490;26.012;2024-01-15T10:10:51;99220.50;;;3.75;100.00
19777;BME280;10047;42.490;26.012;2024-01-15T10:13:17;99209.53;;;3.81;100.00
19777;BME280;10047;42.490;26.012;2024-01-15T10:15:45;99188.50;;;3.89;100.00
19777;BME280;10047;42.490;26.012;2024-01-15T10:18:12;99203.72;;;3.79;100.00
19777;BME280;10047;42.490;26.012;2024-01-15T10:20:37;99184.28;;;3.88;100.00
19777;BME280;10047;42.490;26.012;2024-01-15T10:23:03;99171.59;;;3.99;100.00
19777;BME280;10047;42.490;26.012;2024-01-15T10:25:29;99133.84;;;4.00;100.00
19777;BME280;10047;42.490;26.012;2024-01-15T10:28:00;99128.75;;;4.05;100.00
19777;BME280;10047;42.490;26.012;2024-01-15T10:30:26;99136.03;;;4.20;100.00
19777;BME280;10047;42.490;26.012;2024-01-15T10:32:59;99130.34;;;4.10;100.00
19777;BME280;10047;42.490;26.012;2024-01-15T10:35:32;99130.97;;;4.23;100.00
19777;BME280;10047;42.490;26.012;2024-01-15T10:38:01;99124.06;;;4.34;100.00
19777;BME280;10047;42.490;26.012;2024-01-15T10:40:29;99134.22;;;4.29;100.00
19777;BME280;10047;42.490;26.012;2024-01-15T10:42:54;99117.31;;;4.37;100.00
19777;BME280;10047;42.490;26.012;2024-01-15T10:45:20;99095.84;;;4.64;100.00
19777;BME280;10047;42.490;26.012;2024-01-15T10:47:45;99071.53;;;4.65;100.00
19777;BME280;10047;42.490;26.012;2024-01-15T10:50:11;99071.75;;;5.72;100.00
19777;BME280;10047;42.490;26.012;2024-01-15T10:52:38;99067.41;;;6.46;100.00
19777;BME280;10047;42.490;26.012;2024-01-15T10:55:08;99091.41;;;5.19;100.00
19777;BME280;10047;42.490;26.012;2024-01-15T10:57:38;99062.88;;;4.79;100.00
19777;BME280;10047;42.490;26.012;2024-01-15T11:00:06;99087.09;;;4.83;100.00
19777;BME280;10047;42.490;26.012;2024-01-15T11:02:36;99065.09;;;4.93;100.00
19777;BME280;10047;42.490;26.012;2024-01-15T11:05:02;99054.38;;;4.83;100.00
19777;BME280;10047;42.490;26.012;2024-01-15T11:07:29;99058.19;;;5.02;100.00
19777;BME280;10047;42.490;26.012;2024-01-15T11:09:55;99053.06;;;5.05;100.00
19777;BME280;10047;42.490;26.012;2024-01-15T11:12:20;99030.94;;;4.80;100.00
19777;BME280;10047;42.490;26.012;2024-01-15T11:14:48;98999.09;;;4.79;100.00
19777;BME280;10047;42.490;26.012;2024-01-15T11:17:14;99018.06;;;4.95;100.00
19777;BME280;10047;42.490;26.012;2024-01-15T11:25:14;98956.75;;;4.96;100.00
19777;BME280;10047;42.490;26.012;2024-01-15T11:27:42;98976.03;;;5.34;100.00
19777;BME280;10047;42.490;26.012;2024-01-15T11:30:09;98958.16;;;5.07;100.00
19777;BME280;10047;42.490;26.012;2024-01-15T11:32:36;98916.31;;;5.39;100.00
19777;BME280;10047;42.490;26.012;2024-01-15T11:35:02;98895.00;;;5.16;100.00
19777;BME280;10047;42.490;26.012;2024-01-15T11:37:29;98894.19;;;5.50;100.00
19777;BME280;10047;42.490;26.012;2024-01-15T11:40:17;98882.63;;;5.43;100.00
19777;BME280;10047;42.490;26.012;2024-01-15T11:42:44;98897.59;;;5.47;100.00
19777;BME280;10047;42.490;26.012;2024-01-15T11:45:10;98885.31;;;5.67;100.00
19777;BME280;10047;42.490;26.012;2024-01-15T11:50:57;98806.97;;;5.75;100.00
19777;BME280;10047;42.490;26.012;2024-01-15T11:53:40;98837.78;;;5.86;100.00
19777;BME280;10047;42.490;26.012;2024-01-15T11:56:15;98820.50;;;5.72;100.00
19777;BME280;10047;42.490;26.012;2024-01-15T11:58:42;98839.25;;;5.62;100.00
19777;BME280;10047;42.490;26.012;2024-01-15T12:01:10;98830.84;;;5.94;100.00
19777;BME280;10047;42.490;26.012;2024-01-15T12:03:36;98805.88;;;5.85;100.00
19777;BME280;10047;42.490;26.012;2024-01-15T12:06:02;98824.72;;;5.72;100.00
19777;BME280;10047;42.490;26.012;2024-01-15T12:08:27;98752.50;;;5.69;100.00
19777;BME280;10047;42.490;26.012;2024-01-15T12:10:53;98791.03;;;5.73;100.00
19777;BME280;10047;42.490;26.012;2024-01-15T12:13:20;98762.09;;;5.57;100.00
19777;BME280;10047;42.490;26.012;2024-01-15T12:15:47;98803.47;;;5.79;100.00
19777;BME280;10047;42.490;26.012;2024-01-15T12:18:15;98770.25;;;5.66;100.00
19777;BME280;10047;42.490;26.012;2024-01-15T12:20:42;98739.03;;;5.70;100.00
19777;BME280;10047;42.490;26.012;2024-01-15T12:23:07;98753.72;;;6.14;100.00
19777;BME280;10047;42.490;26.012;2024-01-15T12:25:33;98728.72;;;5.78;100.00
19777;BME280;10047;42.490;26.012;2024-01-15T12:28:00;98709.38;;;5.49;100.00
19777;BME280;10047;42.490;26.012;2024-01-15T12:30:30;98749.38;;;5.92;100.00
19777;BME280;10047;42.490;26.012;2024-01-15T12:33:01;98746.22;;;5.82;100.00
19777;BME280;10047;42.490;26.012;2024-01-15T12:35:29;98734.22;;;6.20;100.00
19777;BME280;10047;42.490;26.012;2024-01-15T12:37:55;98754.13;;;6.29;100.00
19777;BME280;10047;42.490;26.012;2024-01-15T12:40:22;98754.81;;;6.34;100.00
19777;BME280;10047;42.490;26.012;2024-01-15T12:42:47;98727.41;;;6.49;100.00
19777;BME280;10047;42.490;26.012;2024-01-15T12:45:13;98737.94;;;5.79;100.00
19777;BME280;10047;42.490;26.012;2024-01-15T12:47:40;98763.81;;;5.56;100.00
19777;BME280;10047;42.490;26.012;2024-01-15T12:50:10;98739.06;;;5.69;100.00